createdAt,value
2023-04-01T00:00:39.360Z,0.00
2023-04-01T00:01:39.357Z,0.00
2023-04-01T00:02:39.401Z,0.00
2023-04-01T00:03:39.599Z,0.00
2023-04-01T00:04:39.405Z,0.00
2023-04-01T00:05:39.380Z,0.00
2023-04-01T00:06:39.374Z,0.00
2023-04-01T00:07:39.390Z,0.00
2023-04-01T00:08:39.378Z,0.00
2023-04-01T00:09:39.380Z,0.00
2023-04-01T00:10:39.388Z,0.00
2023-04-01T00:11:39.387Z,0.00
2023-04-01T00:12:39.396Z,0.00
2023-04-01T00:13:39.412Z,0.00
2023-04-01T00:14:39.403Z,0.00
2023-04-01T00:15:39.405Z,0.00
2023-04-01T00:16:39.462Z,0.00
2023-04-01T00:17:39.440Z,0.00
2023-04-01T00:18:39.420Z,0.00
2023-04-01T00:19:39.429Z,0.00
2023-04-01T00:20:39.431Z,0.00
2023-04-01T00:21:39.425Z,0.00
2023-04-01T00:22:39.432Z,0.00
2023-04-01T00:23:39.456Z,0.00
2023-04-01T00:24:39.440Z,0.00
2023-04-01T00:25:39.442Z,0.00
2023-04-01T00:26:39.448Z,0.00
2023-04-01T00:27:39.451Z,0.00
2023-04-01T00:28:39.459Z,0.00
2023-04-01T00:29:39.462Z,0.00
2023-04-01T00:30:39.530Z,0.00
2023-04-01T00:31:39.487Z,0.00
2023-04-01T00:32:39.518Z,0.00
2023-04-01T00:33:39.494Z,0.00
2023-04-01T00:34:39.497Z,0.00
2023-04-01T00:35:39.508Z,0.00
2023-04-01T00:36:39.557Z,0.00
2023-04-01T00:37:39.492Z,0.00
2023-04-01T00:38:39.503Z,0.00
2023-04-01T00:39:39.518Z,0.00
2023-04-01T00:40:39.511Z,0.00
2023-04-01T00:41:39.504Z,0.00
2023-04-01T00:42:39.511Z,0.00
2023-04-01T00:43:39.514Z,0.00
2023-04-01T00:44:39.523Z,0.00
2023-04-01T00:45:39.527Z,0.00
2023-04-01T00:46:39.548Z,0.00
2023-04-01T00:47:39.542Z,0.00
2023-04-01T00:48:39.538Z,0.00
2023-04-01T00:49:39.546Z,0.00
2023-04-01T00:50:39.544Z,0.00
2023-04-01T00:51:39.542Z,0.00
2023-04-01T00:52:39.557Z,0.00
2023-04-01T00:53:39.558Z,0.00
2023-04-01T00:54:39.556Z,0.00
2023-04-01T00:55:39.574Z,0.00
2023-04-01T00:56:39.560Z,0.00
2023-04-01T00:57:39.574Z,0.00
2023-04-01T00:58:39.569Z,0.00
2023-04-01T00:59:39.568Z,0.00
2023-04-01T01:00:39.613Z,0.00
2023-04-01T01:01:39.576Z,0.00
2023-04-01T01:02:39.700Z,0.00
2023-04-01T01:03:39.603Z,0.00
2023-04-01T01:04:39.592Z,0.00
2023-04-01T01:05:48.478Z,0.00
2023-04-01T01:06:39.611Z,0.00
2023-04-01T01:07:39.603Z,0.00
2023-04-01T01:08:39.601Z,0.00
2023-04-01T01:09:39.606Z,0.00
2023-04-01T01:10:39.626Z,0.00
2023-04-01T01:11:43.772Z,0.00
2023-04-01T01:12:39.637Z,0.00
2023-04-01T01:13:39.615Z,0.00
2023-04-01T01:14:39.623Z,0.00
2023-04-01T01:15:39.625Z,0.00
2023-04-01T01:16:39.664Z,0.00
2023-04-01T01:17:39.722Z,0.00
2023-04-01T01:18:39.636Z,0.00
2023-04-01T01:19:39.639Z,0.00
2023-04-01T01:20:39.643Z,0.00
2023-04-01T01:21:39.642Z,0.00
2023-04-01T01:22:39.649Z,0.00
2023-04-01T01:23:39.655Z,0.00
2023-04-01T01:24:39.659Z,0.00
2023-04-01T01:25:39.664Z,0.00
2023-04-01T01:26:39.663Z,0.00
2023-04-01T01:27:39.683Z,0.00
2023-04-01T01:28:39.675Z,0.00
2023-04-01T01:29:39.672Z,0.00
2023-04-01T01:30:39.730Z,0.00
2023-04-01T01:31:39.679Z,0.00
2023-04-01T01:32:39.740Z,0.00
2023-04-01T01:33:39.685Z,0.00
2023-04-01T01:34:39.694Z,0.00
2023-04-01T01:35:39.712Z,0.00
2023-04-01T01:36:39.699Z,0.00
2023-04-01T01:37:39.709Z,0.00
2023-04-01T01:38:39.710Z,0.00
2023-04-01T01:39:39.709Z,0.00
2023-04-01T01:40:39.715Z,0.00
2023-04-01T01:41:39.729Z,0.00
2023-04-01T01:42:39.726Z,0.00
2023-04-01T01:43:39.752Z,0.00
2023-04-01T01:44:39.732Z,0.00
2023-04-01T01:45:39.751Z,0.00
2023-04-01T01:46:39.790Z,0.00
2023-04-01T01:47:39.772Z,0.00
2023-04-01T01:48:39.753Z,0.00
2023-04-01T01:49:39.744Z,0.00
2023-04-01T01:50:39.759Z,0.00
2023-04-01T01:51:39.750Z,0.00
2023-04-01T01:52:39.759Z,0.00
2023-04-01T01:53:39.774Z,0.00
2023-04-01T01:54:39.771Z,0.00
2023-04-01T01:55:39.770Z,0.00
2023-04-01T01:56:39.772Z,0.00
2023-04-01T01:57:39.780Z,0.00
2023-04-01T01:58:39.780Z,0.00
2023-04-01T01:59:39.799Z,0.00
2023-04-01T02:00:39.794Z,0.00
2023-04-01T02:01:39.814Z,0.00
2023-04-01T02:02:39.835Z,0.00
2023-04-01T02:03:39.797Z,0.00
2023-04-01T02:04:39.832Z,0.00
2023-04-01T02:05:39.801Z,0.00
2023-04-01T02:06:39.813Z,0.00
2023-04-01T02:07:39.810Z,0.00
2023-04-01T02:08:39.836Z,0.00
2023-04-01T02:09:39.818Z,0.00
2023-04-01T02:10:39.826Z,0.00
2023-04-01T02:11:39.828Z,0.00
2023-04-01T02:12:39.829Z,0.00
2023-04-01T02:13:39.839Z,0.00
2023-04-01T02:14:39.842Z,0.00
2023-04-01T02:15:39.869Z,0.00
2023-04-01T02:16:39.851Z,0.00
2023-04-01T02:17:39.883Z,0.00
2023-04-01T02:18:39.853Z,0.00
2023-04-01T02:19:39.857Z,0.00
2023-04-01T02:20:39.858Z,0.00
2023-04-01T02:21:39.861Z,0.00
2023-04-01T02:22:39.871Z,0.00
2023-04-01T02:23:39.868Z,0.00
2023-04-01T02:24:39.874Z,0.00
2023-04-01T02:25:39.887Z,0.00
2023-04-01T02:26:39.883Z,0.00
2023-04-01T02:27:39.882Z,0.00
2023-04-01T02:28:39.896Z,0.00
2023-04-01T02:29:39.889Z,0.00
2023-04-01T02:30:39.916Z,0.00
2023-04-01T02:31:40.030Z,0.00
2023-04-01T02:32:39.993Z,0.00
2023-04-01T02:33:39.944Z,0.00
2023-04-01T02:34:39.911Z,0.00
2023-04-01T02:35:39.933Z,0.00
2023-04-01T02:36:39.914Z,0.00
2023-04-01T02:37:40.569Z,0.00
2023-04-01T02:38:39.937Z,0.00
2023-04-01T02:39:39.923Z,0.00
2023-04-01T02:40:39.938Z,0.00
2023-04-01T02:41:39.956Z,0.00
2023-04-01T02:42:39.951Z,0.00
2023-04-01T02:43:39.942Z,0.00
2023-04-01T02:44:39.945Z,0.00
2023-04-01T02:45:39.955Z,0.00
2023-04-01T02:46:39.965Z,0.00
2023-04-01T02:47:40.018Z,0.00
2023-04-01T02:48:39.957Z,0.00
2023-04-01T02:49:39.978Z,0.00
2023-04-01T02:50:39.966Z,0.00
2023-04-01T02:51:39.974Z,0.00
2023-04-01T02:52:39.992Z,0.00
2023-04-01T02:53:39.982Z,0.00
2023-04-01T02:54:39.978Z,0.00
2023-04-01T02:55:39.987Z,0.00
2023-04-01T02:56:39.990Z,0.00
2023-04-01T02:57:39.997Z,0.00
2023-04-01T02:58:39.992Z,0.00
2023-04-01T02:59:40.004Z,0.00
2023-04-01T03:00:39.999Z,0.00
2023-04-01T03:01:40.021Z,0.00
2023-04-01T03:02:40.158Z,0.00
2023-04-01T03:03:40.108Z,0.00
2023-04-01T03:04:40.012Z,0.00
2023-04-01T03:05:40.029Z,0.00
2023-04-01T03:06:40.024Z,0.00
2023-04-01T03:07:40.033Z,0.00
2023-04-01T03:08:40.027Z,0.00
2023-04-01T03:09:40.039Z,0.00
2023-04-01T03:10:40.047Z,0.00
2023-04-01T03:11:40.056Z,0.00
2023-04-01T03:12:40.062Z,0.00
2023-04-01T03:13:40.070Z,0.00
2023-04-01T03:14:40.056Z,0.00
2023-04-01T03:15:40.071Z,0.00
2023-04-01T03:16:40.130Z,0.00
2023-04-01T03:17:40.087Z,0.00
2023-04-01T03:18:40.062Z,0.00
2023-04-01T03:19:40.087Z,0.00
2023-04-01T03:20:40.067Z,0.00
2023-04-01T03:21:40.082Z,0.00
2023-04-01T03:22:42.302Z,0.00
2023-04-01T03:23:40.077Z,0.00
2023-04-01T03:24:40.079Z,0.00
2023-04-01T03:25:40.087Z,0.00
2023-04-01T03:26:40.101Z,0.00
2023-04-01T03:27:40.106Z,0.00
2023-04-01T03:28:40.094Z,0.00
2023-04-01T03:29:40.146Z,0.00
2023-04-01T03:30:40.160Z,0.00
2023-04-01T03:31:40.113Z,0.00
2023-04-01T03:32:40.199Z,0.00
2023-04-01T03:33:40.133Z,0.00
2023-04-01T03:34:40.110Z,0.00
2023-04-01T03:35:40.142Z,0.00
2023-04-01T03:36:40.148Z,0.00
2023-04-01T03:37:40.120Z,0.00
2023-04-01T03:38:40.126Z,0.00
2023-04-01T03:39:40.136Z,0.00
2023-04-01T03:40:40.131Z,0.00
2023-04-01T03:41:40.138Z,0.00
2023-04-01T03:42:40.169Z,0.00
2023-04-01T03:43:40.155Z,0.00
2023-04-01T03:44:40.142Z,0.00
2023-04-01T03:45:40.149Z,0.00
2023-04-01T03:46:40.266Z,0.00
2023-04-01T03:47:40.224Z,0.00
2023-04-01T03:48:40.155Z,0.00
2023-04-01T03:49:40.160Z,0.00
2023-04-01T03:50:40.161Z,0.00
2023-04-01T03:51:40.189Z,0.00
2023-04-01T03:52:40.166Z,0.00
2023-04-01T03:53:40.181Z,0.00
2023-04-01T03:54:40.174Z,0.00
2023-04-01T03:55:40.183Z,0.00
2023-04-01T03:56:40.181Z,0.00
2023-04-01T03:57:40.225Z,0.00
2023-04-01T03:58:40.333Z,0.00
2023-04-01T03:59:40.203Z,0.00
2023-04-01T04:00:40.194Z,0.00
2023-04-01T04:01:40.208Z,0.00
2023-04-01T04:02:40.313Z,0.00
2023-04-01T04:03:40.273Z,0.00
2023-04-01T04:04:40.347Z,0.00
2023-04-01T04:05:40.221Z,0.00
2023-04-01T04:06:40.223Z,0.00
2023-04-01T04:07:40.241Z,0.00
2023-04-01T04:08:40.222Z,0.00
2023-04-01T04:09:40.235Z,0.00
2023-04-01T04:10:40.234Z,0.00
2023-04-01T04:11:40.236Z,0.00
2023-04-01T04:12:40.236Z,0.00
2023-04-01T04:13:40.242Z,0.00
2023-04-01T04:14:40.245Z,0.00
2023-04-01T04:15:40.325Z,0.00
2023-04-01T04:16:40.256Z,0.00
2023-04-01T04:17:40.304Z,0.00
2023-04-01T04:18:40.260Z,0.00
2023-04-01T04:19:40.275Z,0.00
2023-04-01T04:20:40.276Z,0.00
2023-04-01T04:21:40.270Z,0.00
2023-04-01T04:22:40.268Z,0.00
2023-04-01T04:23:40.297Z,0.00
2023-04-01T04:24:40.274Z,0.00
2023-04-01T04:25:40.281Z,0.00
2023-04-01T04:26:40.281Z,0.00
2023-04-01T04:27:40.288Z,0.00
2023-04-01T04:28:40.291Z,0.00
2023-04-01T04:29:40.299Z,0.00
2023-04-01T04:30:40.295Z,0.00
2023-04-01T04:31:40.365Z,0.00
2023-04-01T04:32:40.346Z,0.00
2023-04-01T04:33:40.313Z,0.00
2023-04-01T04:34:40.327Z,0.00
2023-04-01T04:35:40.336Z,0.00
2023-04-01T04:36:40.319Z,0.00
2023-04-01T04:37:40.319Z,0.00
2023-04-01T04:38:40.322Z,0.00
2023-04-01T04:39:40.353Z,0.00
2023-04-01T04:40:40.325Z,0.00
2023-04-01T04:41:40.337Z,0.00
2023-04-01T04:42:40.337Z,0.00
2023-04-01T04:43:40.359Z,0.00
2023-04-01T04:44:40.372Z,0.00
2023-04-01T04:45:40.345Z,0.00
2023-04-01T04:46:40.457Z,0.00
2023-04-01T04:47:40.407Z,0.00
2023-04-01T04:48:40.363Z,0.00
2023-04-01T04:49:40.363Z,0.00
2023-04-01T04:50:40.365Z,0.00
2023-04-01T04:51:40.366Z,0.00
2023-04-01T04:52:40.367Z,0.00
2023-04-01T04:53:40.373Z,0.00
2023-04-01T04:54:40.385Z,0.00
2023-04-01T04:55:40.398Z,0.00
2023-04-01T04:56:40.403Z,4.00
2023-04-01T04:57:40.390Z,0.00
2023-04-01T04:58:40.457Z,4.00
2023-04-01T04:59:40.393Z,4.00
2023-04-01T05:00:40.387Z,0.00
2023-04-01T05:01:40.415Z,4.00
2023-04-01T05:02:40.580Z,4.00
2023-04-01T05:03:40.477Z,4.00
2023-04-01T05:04:40.401Z,4.00
2023-04-01T05:05:40.450Z,12.00
2023-04-01T05:06:40.412Z,12.00
2023-04-01T05:07:40.415Z,8.00
2023-04-01T05:08:40.417Z,8.00
2023-04-01T05:09:40.425Z,8.00
2023-04-01T05:10:40.418Z,8.00
2023-04-01T05:11:40.447Z,12.00
2023-04-01T05:12:40.424Z,16.00
2023-04-01T05:13:40.430Z,20.00
2023-04-01T05:14:40.429Z,28.00
2023-04-01T05:15:40.459Z,36.00
2023-04-01T05:16:40.483Z,48.00
2023-04-01T05:17:40.454Z,64.00
2023-04-01T05:18:40.443Z,72.00
2023-04-01T05:19:40.473Z,72.00
2023-04-01T05:20:40.456Z,72.00
2023-04-01T05:21:40.456Z,60.00
2023-04-01T05:22:40.457Z,44.00
2023-04-01T05:23:40.461Z,28.00
2023-04-01T05:24:40.480Z,24.00
2023-04-01T05:25:40.528Z,20.00
2023-04-01T05:26:40.479Z,16.00
2023-04-01T05:27:40.498Z,16.00
2023-04-01T05:28:40.534Z,16.00
2023-04-01T05:29:40.485Z,20.00
2023-04-01T05:30:40.511Z,24.00
2023-04-01T05:31:40.487Z,28.00
2023-04-01T05:32:40.518Z,24.00
2023-04-01T05:33:40.501Z,24.00
2023-04-01T05:34:40.564Z,24.00
2023-04-01T05:35:40.575Z,28.00
2023-04-01T05:36:40.511Z,28.00
2023-04-01T05:37:40.512Z,36.00
2023-04-01T05:38:40.511Z,40.00
2023-04-01T05:39:40.544Z,44.00
2023-04-01T05:40:40.515Z,56.00
2023-04-01T05:41:40.521Z,68.00
2023-04-01T05:42:40.524Z,80.00
2023-04-01T05:43:40.552Z,96.00
2023-04-01T05:44:40.540Z,108.00
2023-04-01T05:45:40.536Z,100.00
2023-04-01T05:46:40.585Z,92.00
2023-04-01T05:47:40.577Z,108.00
2023-04-01T05:48:40.541Z,136.00
2023-04-01T05:49:40.548Z,176.00
2023-04-01T05:50:40.548Z,224.00
2023-04-01T05:51:40.554Z,256.00
2023-04-01T05:52:40.551Z,300.00
2023-04-01T05:53:40.566Z,340.00
2023-04-01T05:54:40.563Z,344.00
2023-04-01T05:55:40.566Z,304.00
2023-04-01T05:56:40.565Z,252.00
2023-04-01T05:57:40.612Z,216.00
2023-04-01T05:58:40.608Z,192.00
2023-04-01T05:59:40.596Z,164.00
2023-04-01T06:00:40.577Z,156.00
2023-04-01T06:01:40.599Z,160.00
2023-04-01T06:02:40.675Z,160.00
2023-04-01T06:03:40.756Z,148.00
2023-04-01T06:04:40.648Z,148.00
2023-04-01T06:05:40.595Z,152.00
2023-04-01T06:06:40.594Z,152.00
2023-04-01T06:07:40.601Z,152.00
2023-04-01T06:08:40.606Z,152.00
2023-04-01T06:09:40.608Z,152.00
2023-04-01T06:10:40.623Z,156.00
2023-04-01T06:11:40.616Z,168.00
2023-04-01T06:12:40.615Z,176.00
2023-04-01T06:13:40.621Z,200.00
2023-04-01T06:14:40.619Z,212.00
2023-04-01T06:15:40.651Z,224.00
2023-04-01T06:16:40.720Z,212.00
2023-04-01T06:17:40.671Z,200.00
2023-04-01T06:18:40.637Z,180.00
2023-04-01T06:19:40.639Z,164.00
2023-04-01T06:20:40.637Z,152.00
2023-04-01T06:21:40.663Z,128.00
2023-04-01T06:22:40.694Z,120.00
2023-04-01T06:23:40.672Z,120.00
2023-04-01T06:24:40.659Z,112.00
2023-04-01T06:25:40.668Z,120.00
2023-04-01T06:26:40.687Z,128.00
2023-04-01T06:27:40.707Z,136.00
2023-04-01T06:28:40.685Z,148.00
2023-04-01T06:29:40.679Z,164.00
2023-04-01T06:30:40.695Z,168.00
2023-04-01T06:31:41.020Z,160.00
2023-04-01T06:32:40.747Z,152.00
2023-04-01T06:33:40.705Z,156.00
2023-04-01T06:34:40.691Z,168.00
2023-04-01T06:35:40.779Z,180.00
2023-04-01T06:36:40.740Z,184.00
2023-04-01T06:37:40.713Z,184.00
2023-04-01T06:38:40.713Z,192.00
2023-04-01T06:39:40.717Z,188.00
2023-04-01T06:40:40.722Z,200.00
2023-04-01T06:41:40.724Z,232.00
2023-04-01T06:42:40.724Z,260.00
2023-04-01T06:43:40.741Z,248.00
2023-04-01T06:44:40.729Z,224.00
2023-04-01T06:45:40.832Z,224.00
2023-04-01T06:46:40.739Z,212.00
2023-04-01T06:47:41.565Z,192.00
2023-04-01T06:48:40.740Z,180.00
2023-04-01T06:49:40.748Z,188.00
2023-04-01T06:50:40.746Z,204.00
2023-04-01T06:51:40.754Z,220.00
2023-04-01T06:52:40.757Z,236.00
2023-04-01T06:53:40.768Z,252.00
2023-04-01T06:54:40.765Z,264.00
2023-04-01T06:55:40.777Z,288.00
2023-04-01T06:56:40.769Z,340.00
2023-04-01T06:57:40.778Z,436.00
2023-04-01T06:58:40.780Z,536.00
2023-04-01T06:59:40.891Z,572.00
2023-04-01T07:00:40.792Z,604.00
2023-04-01T07:01:40.843Z,620.00
2023-04-01T07:02:40.829Z,640.00
2023-04-01T07:03:40.822Z,660.00
2023-04-01T07:04:40.913Z,644.00
2023-04-01T07:05:40.830Z,612.00
2023-04-01T07:06:40.812Z,596.00
2023-04-01T07:07:40.806Z,544.00
2023-04-01T07:08:40.820Z,504.00
2023-04-01T07:09:40.822Z,456.00
2023-04-01T07:10:40.822Z,392.00
2023-04-01T07:11:40.821Z,324.00
2023-04-01T07:12:40.831Z,304.00
2023-04-01T07:13:40.835Z,300.00
2023-04-01T07:14:40.834Z,320.00
2023-04-01T07:15:40.838Z,348.00
2023-04-01T07:16:41.039Z,388.00
2023-04-01T07:17:40.858Z,420.00
2023-04-01T07:18:40.849Z,476.00
2023-04-01T07:19:41.219Z,524.00
2023-04-01T07:20:40.860Z,544.00
2023-04-01T07:21:40.857Z,552.00
2023-04-01T07:22:40.864Z,528.00
2023-04-01T07:23:40.872Z,476.00
2023-04-01T07:24:40.882Z,420.00
2023-04-01T07:25:40.872Z,400.00
2023-04-01T07:26:40.886Z,404.00
2023-04-01T07:27:40.887Z,424.00
2023-04-01T07:28:40.891Z,444.00
2023-04-01T07:29:40.890Z,468.00
2023-04-01T07:30:40.952Z,500.00
2023-04-01T07:31:40.911Z,556.00
2023-04-01T07:32:40.938Z,624.00
2023-04-01T07:33:41.007Z,660.00
2023-04-01T07:34:40.912Z,660.00
2023-04-01T07:35:40.969Z,608.00
2023-04-01T07:36:40.928Z,544.00
2023-04-01T07:37:40.923Z,512.00
2023-04-01T07:38:40.960Z,488.00
2023-04-01T07:39:40.947Z,456.00
2023-04-01T07:40:40.938Z,456.00
2023-04-01T07:41:40.938Z,484.00
2023-04-01T07:42:40.946Z,532.00
2023-04-01T07:43:40.946Z,552.00
2023-04-01T07:44:40.955Z,552.00
2023-04-01T07:45:40.955Z,556.00
2023-04-01T07:46:41.089Z,584.00
2023-04-01T07:47:41.012Z,624.00
2023-04-01T07:48:40.969Z,672.00
2023-04-01T07:49:40.974Z,684.00
2023-04-01T07:50:40.979Z,652.00
2023-04-01T07:51:41.005Z,620.00
2023-04-01T07:52:40.988Z,584.00
2023-04-01T07:53:40.988Z,560.00
2023-04-01T07:54:40.993Z,540.00
2023-04-01T07:55:40.996Z,524.00
2023-04-01T07:56:41.009Z,496.00
2023-04-01T07:57:41.046Z,476.00
2023-04-01T07:58:41.026Z,484.00
2023-04-01T07:59:41.013Z,552.00
2023-04-01T08:00:41.023Z,608.00
2023-04-01T08:01:41.025Z,628.00
2023-04-01T08:02:41.120Z,652.00
2023-04-01T08:03:41.133Z,664.00
2023-04-01T08:04:41.032Z,676.00
2023-04-01T08:05:41.046Z,672.00
2023-04-01T08:06:41.058Z,640.00
2023-04-01T08:07:41.066Z,604.00
2023-04-01T08:08:41.057Z,600.00
2023-04-01T08:09:41.058Z,624.00
2023-04-01T08:10:41.059Z,648.00
2023-04-01T08:11:43.484Z,704.00
2023-04-01T08:12:41.071Z,704.00
2023-04-01T08:13:41.075Z,732.00
2023-04-01T08:14:41.086Z,788.00
2023-04-01T08:15:41.084Z,804.00
2023-04-01T08:16:41.148Z,872.00
2023-04-01T08:17:41.119Z,944.00
2023-04-01T08:18:41.120Z,1028.00
2023-04-01T08:19:41.107Z,1136.00
2023-04-01T08:20:41.100Z,1248.00
2023-04-01T08:21:41.101Z,1284.00
2023-04-01T08:22:41.110Z,1320.00
2023-04-01T08:23:41.136Z,1340.00
2023-04-01T08:24:47.536Z,1304.00
2023-04-01T08:25:41.121Z,1316.00
2023-04-01T08:26:41.142Z,1296.00
2023-04-01T08:27:41.129Z,1264.00
2023-04-01T08:28:41.142Z,1232.00
2023-04-01T08:29:41.152Z,1240.00
2023-04-01T08:30:41.144Z,1288.00
2023-04-01T08:31:41.213Z,1300.00
2023-04-01T08:32:41.185Z,1276.00
2023-04-01T08:33:41.155Z,1316.00
2023-04-01T08:34:41.164Z,1320.00
2023-04-01T08:35:41.449Z,1284.00
2023-04-01T08:36:41.175Z,1272.00
2023-04-01T08:37:41.178Z,1316.00
2023-04-01T08:38:41.180Z,1324.00
2023-04-01T08:39:41.209Z,1328.00
2023-04-01T08:40:41.204Z,1320.00
2023-04-01T08:41:41.199Z,1380.00
2023-04-01T08:42:41.205Z,1488.00
2023-04-01T08:43:41.211Z,1444.00
2023-04-01T08:44:41.213Z,1444.00
2023-04-01T08:45:41.240Z,1484.00
2023-04-01T08:46:41.229Z,1528.00
2023-04-01T08:47:41.259Z,1544.00
2023-04-01T08:48:41.237Z,1480.00
2023-04-01T08:49:41.240Z,1472.00
2023-04-01T08:50:41.248Z,1460.00
2023-04-01T08:51:41.252Z,1424.00
2023-04-01T08:52:41.259Z,1364.00
2023-04-01T08:53:41.290Z,1292.00
2023-04-01T08:54:41.293Z,1204.00
2023-04-01T08:55:41.299Z,1112.00
2023-04-01T08:56:41.283Z,1100.00
2023-04-01T08:57:41.281Z,1088.00
2023-04-01T08:58:41.304Z,1104.00
2023-04-01T08:59:41.295Z,1248.00
2023-04-01T09:00:41.306Z,1400.00
2023-04-01T09:01:41.305Z,1544.00
2023-04-01T09:02:41.446Z,1704.00
2023-04-01T09:03:41.478Z,1772.00
2023-04-01T09:04:41.334Z,1560.00
2023-04-01T09:05:41.344Z,1380.00
2023-04-01T09:06:41.347Z,1332.00
2023-04-01T09:07:41.341Z,1264.00
2023-04-01T09:08:41.372Z,1308.00
2023-04-01T09:09:41.354Z,1360.00
2023-04-01T09:10:41.373Z,1460.00
2023-04-01T09:11:41.397Z,1440.00
2023-04-01T09:12:41.379Z,1484.00
2023-04-01T09:13:41.401Z,1564.00
2023-04-01T09:14:41.383Z,1668.00
2023-04-01T09:15:41.476Z,1700.00
2023-04-01T09:16:41.400Z,1660.00
2023-04-01T09:17:41.471Z,1744.00
2023-04-01T09:18:41.410Z,1936.00
2023-04-01T09:19:41.425Z,2076.00
2023-04-01T09:20:41.427Z,2144.00
2023-04-01T09:21:41.446Z,2028.00
2023-04-01T09:22:41.436Z,1976.00
2023-04-01T09:23:41.441Z,1916.00
2023-04-01T09:24:41.451Z,1832.00
2023-04-01T09:25:41.458Z,1808.00
2023-04-01T09:26:41.463Z,1852.00
2023-04-01T09:27:41.484Z,1896.00
2023-04-01T09:28:41.472Z,2004.00
2023-04-01T09:29:41.476Z,2264.00
2023-04-01T09:30:41.512Z,2308.00
2023-04-01T09:31:41.557Z,2196.00
2023-04-01T09:32:41.577Z,2040.00
2023-04-01T09:33:41.509Z,1992.00
2023-04-01T09:34:41.514Z,2004.00
2023-04-01T09:35:41.537Z,2032.00
2023-04-01T09:36:41.547Z,2136.00
2023-04-01T09:37:41.529Z,2260.00
2023-04-01T09:38:41.550Z,2568.00
2023-04-01T09:39:41.545Z,2556.00
2023-04-01T09:40:41.560Z,3032.00
2023-04-01T09:41:41.558Z,2316.00
2023-04-01T09:42:41.568Z,2128.00
2023-04-01T09:43:41.593Z,2092.00
2023-04-01T09:44:42.929Z,2184.00
2023-04-01T09:45:41.585Z,2224.00
2023-04-01T09:46:41.870Z,2456.00
2023-04-01T09:47:41.619Z,2588.00
2023-04-01T09:48:41.605Z,2988.00
2023-04-01T09:49:41.622Z,3612.00
2023-04-01T09:50:41.625Z,3328.00
2023-04-01T09:51:41.638Z,3468.00
2023-04-01T09:52:41.633Z,3824.00
2023-04-01T09:53:41.658Z,3228.00
2023-04-01T09:54:41.645Z,2996.00
2023-04-01T09:55:41.651Z,3112.00
2023-04-01T09:56:41.662Z,2676.00
2023-04-01T09:57:41.664Z,2532.00
2023-04-01T09:58:43.914Z,2444.00
2023-04-01T09:59:41.697Z,2360.00
2023-04-01T10:00:41.692Z,2276.00
2023-04-01T10:01:41.814Z,2716.00
2023-04-01T10:02:41.716Z,2952.00
2023-04-01T10:03:41.704Z,3088.00
2023-04-01T10:04:41.715Z,2452.00
2023-04-01T10:05:41.772Z,2276.00
2023-04-01T10:06:41.726Z,3248.00
2023-04-01T10:07:41.735Z,2264.00
2023-04-01T10:08:41.744Z,2128.00
2023-04-01T10:09:41.758Z,2672.00
2023-04-01T10:10:41.759Z,2756.00
2023-04-01T10:11:41.767Z,2416.00
2023-04-01T10:12:41.773Z,3324.00
2023-04-01T10:13:41.781Z,3712.00
2023-04-01T10:14:41.791Z,4788.00
2023-04-01T10:15:41.817Z,4832.00
2023-04-01T10:16:41.838Z,3376.00
2023-04-01T10:17:41.833Z,2176.00
2023-04-01T10:18:41.822Z,2100.00
2023-04-01T10:19:41.825Z,3432.00
2023-04-01T10:20:41.844Z,3928.00
2023-04-01T10:21:41.845Z,4000.00
2023-04-01T10:22:41.858Z,2276.00
2023-04-01T10:23:41.868Z,2924.00
2023-04-01T10:24:41.877Z,3796.00
2023-04-01T10:25:41.873Z,4888.00
2023-04-01T10:26:41.895Z,4420.00
2023-04-01T10:27:41.904Z,4972.00
2023-04-01T10:28:41.904Z,5272.00
2023-04-01T10:29:41.913Z,5452.00
2023-04-01T10:30:41.929Z,5112.00
2023-04-01T10:31:41.972Z,4740.00
2023-04-01T10:32:43.587Z,1844.00
2023-04-01T10:33:41.947Z,4452.00
2023-04-01T10:34:41.954Z,3460.00
2023-04-01T10:35:41.980Z,4324.00
2023-04-01T10:36:41.974Z,5028.00
2023-04-01T10:37:41.980Z,4908.00
2023-04-01T10:38:41.996Z,5008.00
2023-04-01T10:39:41.997Z,5608.00
2023-04-01T10:40:42.015Z,5800.00
2023-04-01T10:41:42.028Z,5168.00
2023-04-01T10:42:42.031Z,2836.00
2023-04-01T10:43:42.042Z,5608.00
2023-04-01T10:44:42.051Z,2716.00
2023-04-01T10:45:42.088Z,3364.00
2023-04-01T10:46:42.068Z,3512.00
2023-04-01T10:47:42.115Z,3268.00
2023-04-01T10:48:42.111Z,4068.00
2023-04-01T10:49:42.100Z,3600.00
2023-04-01T10:50:42.109Z,4088.00
2023-04-01T10:51:42.115Z,4552.00
2023-04-01T10:52:42.128Z,4188.00
2023-04-01T10:53:42.138Z,4272.00
2023-04-01T10:54:42.187Z,3176.00
2023-04-01T10:55:42.153Z,2808.00
2023-04-01T10:56:42.169Z,3612.00
2023-04-01T10:57:42.172Z,3976.00
2023-04-01T10:58:42.185Z,4216.00
2023-04-01T10:59:42.197Z,3820.00
2023-04-01T11:00:42.248Z,2592.00
2023-04-01T11:01:42.330Z,1852.00
2023-04-01T11:02:42.390Z,1728.00
2023-04-01T11:03:42.327Z,1736.00
2023-04-01T11:04:42.245Z,1980.00
2023-04-01T11:05:42.250Z,2304.00
2023-04-01T11:06:42.269Z,3708.00
2023-04-01T11:07:42.271Z,3660.00
2023-04-01T11:08:42.285Z,3176.00
2023-04-01T11:09:42.315Z,3816.00
2023-04-01T11:10:42.322Z,2780.00
2023-04-01T11:11:42.313Z,3636.00
2023-04-01T11:12:42.323Z,2900.00
2023-04-01T11:13:42.332Z,4372.00
2023-04-01T11:14:42.344Z,4568.00
2023-04-01T11:15:42.386Z,3152.00
2023-04-01T11:16:42.408Z,3220.00
2023-04-01T11:17:42.414Z,3612.00
2023-04-01T11:18:42.400Z,3520.00
2023-04-01T11:19:42.417Z,2664.00
2023-04-01T11:20:42.403Z,3136.00
2023-04-01T11:21:42.418Z,5940.00
2023-04-01T11:22:42.427Z,4708.00
2023-04-01T11:23:43.992Z,5720.00
2023-04-01T11:24:42.442Z,4056.00
2023-04-01T11:25:42.463Z,5688.00
2023-04-01T11:26:42.483Z,5560.00
2023-04-01T11:27:42.477Z,5204.00
2023-04-01T11:28:42.484Z,5236.00
2023-04-01T11:29:53.177Z,5572.00
2023-04-01T11:30:42.511Z,5056.00
2023-04-01T11:31:42.569Z,4976.00
2023-04-01T11:32:42.570Z,4792.00
2023-04-01T11:33:42.543Z,1964.00
2023-04-01T11:34:42.553Z,1908.00
2023-04-01T11:35:42.584Z,1820.00
2023-04-01T11:36:42.599Z,1840.00
2023-04-01T11:37:42.584Z,1816.00
2023-04-01T11:38:42.611Z,1680.00
2023-04-01T11:39:42.615Z,1720.00
2023-04-01T11:40:42.649Z,1696.00
2023-04-01T11:41:42.629Z,1624.00
2023-04-01T11:42:42.638Z,1512.00
2023-04-01T11:43:42.668Z,1636.00
2023-04-01T11:44:42.664Z,1700.00
2023-04-01T11:45:42.675Z,1588.00
2023-04-01T11:46:42.798Z,1592.00
2023-04-01T11:47:42.725Z,1792.00
2023-04-01T11:48:44.832Z,3608.00
2023-04-01T11:49:42.725Z,2200.00
2023-04-01T11:50:42.723Z,3180.00
2023-04-01T11:51:42.797Z,6656.00
2023-04-01T11:52:42.744Z,3816.00
2023-04-01T11:53:42.770Z,4340.00
2023-04-01T11:54:42.764Z,2880.00
2023-04-01T11:55:42.786Z,5056.00
2023-04-01T11:56:42.824Z,3928.00
2023-04-01T11:57:42.797Z,5248.00
2023-04-01T11:58:42.821Z,5176.00
2023-04-01T11:59:42.828Z,5180.00
2023-04-01T12:00:42.853Z,5160.00
2023-04-01T12:01:42.865Z,5168.00
2023-04-01T12:02:42.915Z,5204.00
2023-04-01T12:03:43.014Z,5144.00
2023-04-01T12:04:42.933Z,4940.00
2023-04-01T12:05:42.881Z,5140.00
2023-04-01T12:06:42.889Z,5072.00
2023-04-01T12:07:43.873Z,4980.00
2023-04-01T12:08:42.911Z,4852.00
2023-04-01T12:09:42.923Z,4796.00
2023-04-01T12:10:42.938Z,4768.00
2023-04-01T12:11:42.952Z,4752.00
2023-04-01T12:12:50.710Z,4728.00
2023-04-01T12:13:42.967Z,4720.00
2023-04-01T12:14:42.972Z,4724.00
2023-04-01T12:15:42.986Z,4760.00
2023-04-01T12:16:43.058Z,4824.00
2023-04-01T12:17:43.021Z,4960.00
2023-04-01T12:18:43.014Z,4940.00
2023-04-01T12:19:43.030Z,2856.00
2023-04-01T12:20:43.036Z,4888.00
2023-04-01T12:21:43.074Z,4328.00
2023-04-01T12:22:43.060Z,4872.00
2023-04-01T12:23:43.097Z,3992.00
2023-04-01T12:24:43.085Z,2872.00
2023-04-01T12:25:43.097Z,5628.00
2023-04-01T12:26:43.109Z,3656.00
2023-04-01T12:27:43.140Z,4664.00
2023-04-01T12:28:43.152Z,2668.00
2023-04-01T12:29:43.145Z,5276.00
2023-04-01T12:30:43.186Z,5216.00
2023-04-01T12:31:43.259Z,3240.00
2023-04-01T12:32:43.227Z,2096.00
2023-04-01T12:33:43.186Z,2024.00
2023-04-01T12:34:43.194Z,1916.00
2023-04-01T12:35:43.248Z,1844.00
2023-04-01T12:36:43.213Z,1816.00
2023-04-01T12:37:43.225Z,1756.00
2023-04-01T12:38:43.233Z,1700.00
2023-04-01T12:39:43.278Z,1664.00
2023-04-01T12:40:43.256Z,1624.00